createdAt,value
2022-09-20T00:01:58.669Z,1.10
2022-09-20T00:04:48.791Z,1.07
2022-09-20T00:07:36.263Z,1.10
2022-09-20T00:10:24.908Z,1.20
2022-09-20T00:13:14.578Z,1.50
2022-09-20T00:16:05.511Z,1.30
2022-09-20T00:18:53.984Z,1.10
2022-09-20T00:21:41.988Z,0.97
2022-09-20T00:24:29.634Z,1.10
2022-09-20T00:27:17.054Z,1.10
2022-09-20T00:30:04.948Z,1.20
2022-09-20T00:32:52.528Z,1.10
2022-09-20T00:35:43.463Z,1.00
2022-09-20T00:38:31.286Z,1.10
2022-09-20T00:41:18.671Z,1.43
2022-09-20T00:44:24.685Z,1.53
2022-09-20T00:47:20.564Z,1.27
2022-09-20T00:50:26.614Z,1.30
2022-09-20T00:53:17.592Z,1.33
2022-09-20T00:56:07.762Z,1.00
2022-09-20T00:59:01.291Z,1.10
2022-09-20T01:01:53.897Z,1.10
2022-09-20T01:04:43.299Z,1.20
2022-09-20T01:07:30.476Z,1.23
2022-09-20T01:10:18.185Z,1.00
2022-09-20T01:13:06.222Z,1.43
2022-09-20T01:15:54.014Z,1.30
2022-09-20T01:18:42.586Z,1.30
2022-09-20T01:21:30.107Z,1.20
2022-09-20T01:24:23.525Z,0.93
2022-09-20T01:27:11.118Z,1.30
2022-09-20T01:29:58.349Z,1.23
2022-09-20T01:32:55.210Z,1.27
2022-09-20T01:35:45.088Z,1.10
2022-09-20T01:38:35.805Z,1.23
2022-09-20T01:41:32.554Z,1.30
2022-09-20T01:44:23.127Z,1.30
2022-09-20T01:47:19.778Z,1.27
2022-09-20T01:50:13.670Z,1.30
2022-09-20T01:53:01.105Z,1.00
2022-09-20T01:55:57.576Z,1.33
2022-09-20T01:59:07.197Z,1.00
2022-09-20T02:02:00.235Z,1.30
2022-09-20T02:05:10.891Z,1.30
2022-09-20T02:08:02.035Z,1.20
2022-09-20T02:11:08.028Z,1.17
2022-09-20T02:14:09.172Z,0.97
2022-09-20T02:16:57.953Z,1.17
2022-09-20T02:19:58.313Z,1.30
2022-09-20T02:22:49.642Z,1.10
2022-09-20T02:25:37.002Z,1.00
2022-09-20T02:28:30.671Z,1.30
2022-09-20T02:31:18.085Z,1.57
2022-09-20T02:34:20.757Z,1.20
2022-09-20T02:37:14.845Z,1.30
2022-09-20T02:40:17.395Z,1.20
2022-09-20T02:43:13.913Z,1.20
2022-09-20T02:46:07.451Z,1.97
2022-09-20T02:48:57.874Z,1.53
2022-09-20T02:52:08.645Z,1.50
2022-09-20T02:55:00.967Z,1.20
2022-09-20T02:57:59.908Z,1.40
2022-09-20T03:00:53.690Z,1.13
2022-09-20T03:03:56.815Z,1.70
2022-09-20T03:06:47.618Z,1.67
2022-09-20T03:09:46.116Z,1.87
2022-09-20T03:12:33.763Z,1.37
2022-09-20T03:15:39.614Z,2.03
2022-09-20T03:18:35.710Z,1.30
2022-09-20T03:21:41.407Z,1.50
2022-09-20T03:24:48.192Z,1.50
2022-09-20T03:27:51.086Z,1.43
2022-09-20T03:30:40.170Z,1.33
2022-09-20T03:33:33.031Z,1.53
2022-09-20T03:36:34.463Z,1.20
2022-09-20T03:39:33.209Z,1.13
2022-09-20T03:42:20.613Z,1.47
2022-09-20T03:45:11.207Z,1.57
2022-09-20T03:48:02.044Z,1.70
2022-09-20T03:50:52.547Z,1.47
2022-09-20T03:53:43.214Z,1.03
2022-09-20T03:56:33.126Z,1.23
2022-09-20T03:59:39.237Z,1.70
2022-09-20T04:02:55.934Z,2.00
2022-09-20T04:05:43.348Z,1.70
2022-09-20T04:08:47.442Z,1.50
2022-09-20T04:11:54.026Z,1.50
2022-09-20T04:14:49.760Z,1.57
2022-09-20T04:17:37.539Z,1.67
2022-09-20T04:20:44.283Z,1.40
2022-09-20T04:23:46.181Z,1.30
2022-09-20T04:26:35.692Z,1.43
2022-09-20T04:29:26.531Z,1.57
2022-09-20T04:32:31.635Z,1.50
2022-09-20T04:35:49.831Z,1.33
2022-09-20T04:38:37.784Z,1.40
2022-09-20T04:41:26.663Z,1.93
2022-09-20T04:44:40.998Z,1.37
2022-09-20T04:47:47.487Z,1.73
2022-09-20T04:50:43.673Z,1.60
2022-09-20T04:53:37.652Z,1.70
2022-09-20T04:56:43.879Z,1.90
2022-09-20T04:59:38.000Z,1.53
2022-09-20T05:02:43.891Z,1.90
2022-09-20T05:05:46.311Z,1.87
2022-09-20T05:08:36.770Z,1.80
2022-09-20T05:11:30.843Z,1.80
2022-09-20T05:14:18.288Z,1.57
2022-09-20T05:17:15.180Z,1.80
2022-09-20T05:20:24.350Z,2.30
2022-09-20T05:23:14.984Z,1.67
2022-09-20T05:26:03.420Z,1.80
2022-09-20T05:28:57.671Z,1.83
2022-09-20T05:31:52.604Z,1.73
2022-09-20T05:34:44.867Z,1.80
2022-09-20T05:37:51.582Z,2.07
2022-09-20T05:40:45.534Z,1.83
2022-09-20T05:43:39.957Z,2.03
2022-09-20T05:46:43.944Z,1.93
2022-09-20T05:49:50.619Z,2.20
2022-09-20T05:52:52.455Z,1.93
2022-09-20T05:55:55.640Z,2.00
2022-09-20T05:58:55.049Z,2.30
2022-09-20T06:01:46.064Z,2.00
2022-09-20T06:04:39.294Z,2.07
2022-09-20T06:07:27.119Z,2.40
2022-09-20T06:10:32.602Z,2.10
2022-09-20T06:13:49.833Z,2.00
2022-09-20T06:16:43.711Z,1.80
2022-09-20T06:19:37.616Z,2.13
2022-09-20T06:22:34.519Z,1.90
2022-09-20T06:25:48.265Z,2.20
2022-09-20T06:28:41.703Z,2.23
2022-09-20T06:31:29.072Z,2.10
2022-09-20T06:34:17.093Z,1.93
2022-09-20T06:37:35.402Z,1.73
2022-09-20T06:40:52.471Z,1.60
2022-09-20T06:43:41.094Z,1.90
2022-09-20T06:46:29.984Z,1.67
2022-09-20T06:49:18.418Z,1.77
2022-09-20T06:52:06.638Z,1.97
2022-09-20T06:54:55.450Z,1.80
2022-09-20T06:57:43.120Z,1.90
2022-09-20T07:00:30.540Z,2.00
2022-09-20T07:03:19.990Z,1.60
2022-09-20T07:06:08.604Z,1.73
2022-09-20T07:08:55.854Z,1.70
2022-09-20T07:11:45.467Z,2.20
2022-09-20T07:14:32.889Z,2.20
2022-09-20T07:17:22.530Z,2.27
2022-09-20T07:20:10.161Z,2.13
2022-09-20T07:22:58.229Z,1.80
2022-09-20T07:25:45.709Z,1.83
2022-09-20T07:28:34.978Z,1.80
2022-09-20T07:31:23.157Z,1.80
2022-09-20T07:34:11.472Z,1.60
2022-09-20T07:36:59.943Z,1.33
2022-09-20T07:39:47.254Z,1.90
2022-09-20T07:42:35.235Z,1.90
2022-09-20T07:45:23.895Z,1.70
2022-09-20T07:48:11.776Z,3.93
2022-09-20T07:51:04.766Z,3.00
2022-09-20T07:53:55.939Z,3.10
2022-09-20T07:56:43.816Z,3.47
2022-09-20T07:59:31.240Z,2.30
2022-09-20T08:02:18.804Z,2.43
2022-09-20T08:05:06.755Z,2.07
2022-09-20T08:07:54.374Z,1.70
2022-09-20T08:10:42.256Z,2.60
2022-09-20T08:16:41.308Z,2.87
2022-09-20T08:19:28.793Z,3.00
2022-09-20T08:22:16.263Z,2.60
2022-09-20T08:25:03.557Z,2.50
2022-09-20T08:27:55.141Z,2.20
2022-09-20T08:30:43.272Z,2.00
2022-09-20T08:33:30.903Z,2.80
2022-09-20T08:36:20.106Z,2.03
2022-09-20T08:42:25.128Z,2.50
2022-09-20T08:45:22.220Z,2.80
2022-09-20T08:48:14.426Z,3.17
2022-09-20T08:51:05.700Z,3.17
2022-09-20T08:53:54.279Z,2.60
2022-09-20T08:56:41.721Z,2.55
2022-09-20T08:59:29.666Z,2.13
2022-09-20T09:02:21.252Z,2.67
2022-09-20T09:05:19.232Z,2.63
2022-09-20T09:08:37.736Z,2.37
2022-09-20T09:11:25.198Z,2.38
2022-09-20T09:14:41.018Z,3.13
2022-09-20T09:17:30.041Z,3.00
2022-09-20T09:20:21.694Z,2.33
2022-09-20T09:23:10.048Z,2.08
2022-09-20T09:25:57.975Z,2.08
2022-09-20T09:28:45.198Z,2.43
2022-09-20T09:31:33.095Z,2.90
2022-09-20T09:34:25.184Z,2.88
2022-09-20T09:37:31.067Z,2.50
2022-09-20T09:40:19.577Z,2.25
2022-09-20T09:43:08.488Z,2.30
2022-09-20T09:45:56.323Z,2.20
2022-09-20T09:48:47.375Z,2.15
2022-09-20T09:51:35.683Z,2.40
2022-09-20T09:54:27.424Z,2.40
2022-09-20T09:57:40.222Z,2.17
2022-09-20T10:00:28.673Z,2.47
2022-09-20T10:03:39.476Z,2.35
2022-09-20T10:06:49.327Z,1.80
2022-09-20T10:09:57.600Z,2.08
2022-09-20T10:12:45.208Z,1.67
2022-09-20T10:15:44.953Z,1.85
2022-09-20T10:18:42.277Z,1.80
2022-09-20T10:21:49.246Z,1.63
2022-09-20T10:24:55.557Z,1.33
2022-09-20T10:27:53.550Z,2.10
2022-09-20T10:30:48.246Z,2.05
2022-09-20T10:33:38.002Z,1.27
2022-09-20T10:36:48.001Z,1.38
2022-09-20T10:39:37.082Z,1.30
2022-09-20T10:43:04.751Z,1.48
2022-09-20T10:49:24.173Z,1.13
2022-09-20T10:52:31.618Z,0.98
2022-09-20T10:55:22.620Z,0.90
2022-09-20T10:58:33.418Z,1.00
2022-09-20T11:01:21.397Z,1.23
2022-09-20T11:04:11.835Z,1.67
2022-09-20T11:07:05.812Z,1.20
2022-09-20T11:09:58.379Z,1.10
2022-09-20T11:13:02.027Z,1.20
2022-09-20T11:16:07.737Z,1.38
2022-09-20T11:18:55.485Z,1.70
2022-09-20T11:21:49.516Z,1.50
2022-09-20T11:24:48.314Z,1.40
2022-09-20T11:27:45.225Z,1.20
2022-09-20T11:30:34.470Z,1.80
2022-09-20T11:33:26.316Z,1.27
2022-09-20T11:36:20.364Z,1.33
2022-09-20T11:39:14.093Z,1.45
2022-09-20T11:42:02.145Z,1.40
2022-09-20T11:44:50.092Z,1.70
2022-09-20T11:47:54.653Z,1.30
2022-09-20T11:50:51.988Z,1.10
2022-09-20T11:53:49.331Z,1.17
2022-09-20T11:56:37.028Z,1.20
2022-09-20T11:59:34.291Z,0.95
2022-09-20T12:02:25.206Z,1.00
2022-09-20T12:05:27.471Z,1.77
2022-09-20T12:08:36.519Z,0.90
2022-09-20T12:11:29.419Z,1.35
2022-09-20T12:14:23.623Z,1.10
2022-09-20T12:17:30.020Z,1.10
2022-09-20T12:20:35.849Z,1.08
2022-09-20T12:23:39.007Z,1.25
2022-09-20T12:26:26.854Z,1.10
2022-09-20T12:29:32.995Z,1.08
2022-09-20T12:32:32.619Z,1.45
2022-09-20T12:35:49.158Z,1.10
2022-09-20T12:38:37.627Z,1.70
2022-09-20T12:41:28.710Z,1.13
2022-09-20T12:44:25.799Z,1.38
2022-09-20T12:47:13.009Z,0.80
2022-09-20T12:50:20.357Z,1.10
2022-09-20T12:53:13.426Z,1.30
2022-09-20T12:56:04.088Z,1.00
2022-09-20T12:58:53.565Z,1.00
2022-09-20T13:01:41.160Z,0.95
2022-09-20T13:04:42.553Z,1.30
2022-09-20T13:07:34.470Z,1.17
2022-09-20T13:10:24.646Z,0.98
2022-09-20T13:13:14.060Z,1.10
2022-09-20T13:16:05.555Z,1.42
2022-09-20T13:19:02.275Z,0.90
2022-09-20T13:21:49.497Z,1.15
2022-09-20T13:24:42.409Z,1.23
2022-09-20T13:27:31.890Z,1.20
2022-09-20T13:30:24.630Z,1.23
2022-09-20T13:33:25.479Z,1.00
2022-09-20T13:36:13.178Z,1.05
2022-09-20T13:39:00.543Z,0.88
2022-09-20T13:41:50.534Z,1.40
2022-09-20T13:44:38.720Z,1.00
2022-09-20T13:47:30.686Z,0.93
2022-09-20T13:50:18.484Z,1.00
2022-09-20T13:53:28.079Z,1.38
2022-09-20T13:56:26.189Z,1.30
2022-09-20T13:59:19.716Z,0.93
2022-09-20T14:02:19.403Z,0.90
2022-09-20T14:05:10.354Z,0.95
2022-09-20T14:07:58.211Z,1.42
2022-09-20T14:10:45.703Z,1.00
2022-09-20T14:13:37.072Z,1.05
2022-09-20T14:16:28.516Z,1.25
2022-09-20T14:19:17.299Z,0.98
2022-09-20T14:22:05.867Z,0.90
2022-09-20T14:24:59.388Z,0.90
2022-09-20T14:27:46.810Z,0.98
2022-09-20T14:30:39.687Z,1.02
2022-09-20T14:33:27.802Z,0.88
2022-09-20T14:36:16.426Z,0.95
2022-09-20T14:39:06.069Z,1.00
2022-09-20T14:41:53.803Z,0.90
2022-09-20T14:44:42.145Z,1.00
2022-09-20T14:47:37.083Z,1.10
2022-09-20T14:50:27.967Z,1.30
2022-09-20T14:53:26.787Z,1.17
2022-09-20T14:56:16.193Z,0.90
2022-09-20T14:59:05.576Z,1.10
2022-09-20T15:01:56.587Z,1.02
2022-09-20T15:04:54.216Z,1.42
2022-09-20T15:07:42.351Z,1.38
2022-09-20T15:10:30.363Z,1.00
2022-09-20T15:13:17.847Z,1.15
2022-09-20T15:16:05.392Z,1.08
2022-09-20T15:18:52.836Z,0.90
2022-09-20T15:21:40.773Z,1.00
2022-09-20T15:24:28.302Z,0.93
2022-09-20T15:27:15.945Z,0.98
2022-09-20T15:30:03.940Z,0.90
2022-09-20T15:32:53.542Z,1.17
2022-09-20T15:35:41.866Z,1.40
2022-09-20T15:38:29.691Z,1.33
2022-09-20T15:41:17.530Z,1.00
2022-09-20T15:44:05.452Z,1.00
2022-09-20T15:46:54.020Z,1.02
2022-09-20T15:49:42.369Z,1.10
2022-09-20T15:52:34.763Z,0.93
2022-09-20T15:55:22.965Z,1.52
2022-09-20T15:58:10.472Z,1.27
2022-09-20T16:01:08.417Z,1.15
2022-09-20T16:03:56.762Z,1.30
2022-09-20T16:06:45.195Z,1.05
2022-09-20T16:09:32.698Z,1.17
2022-09-20T16:12:21.074Z,1.63
2022-09-20T16:15:08.632Z,0.90
2022-09-20T16:18:15.487Z,1.20
2022-09-20T16:21:09.782Z,1.38
2022-09-20T16:23:58.281Z,1.25
2022-09-20T16:26:46.995Z,1.20
2022-09-20T16:29:35.078Z,1.00
2022-09-20T16:32:22.890Z,1.20
2022-09-20T16:35:10.371Z,1.00
2022-09-20T16:37:57.994Z,1.27
2022-09-20T16:40:49.836Z,0.90
2022-09-20T16:43:37.488Z,1.10
2022-09-20T16:46:27.111Z,1.10
2022-09-20T16:49:17.166Z,1.33
2022-09-20T16:52:05.733Z,1.67
2022-09-20T16:54:53.574Z,1.50
2022-09-20T16:57:40.771Z,1.35
2022-09-20T17:00:28.595Z,1.33
2022-09-20T17:03:15.978Z,1.90
2022-09-20T17:06:05.745Z,1.40
2022-09-20T17:08:59.162Z,1.63
2022-09-20T17:11:49.760Z,1.10
2022-09-20T17:14:37.169Z,1.40
2022-09-20T17:17:24.632Z,1.27
2022-09-20T17:20:13.061Z,2.43
2022-09-20T17:23:00.376Z,1.85
2022-09-20T17:25:48.587Z,1.58
2022-09-20T17:28:45.657Z,1.40
2022-09-20T17:31:37.784Z,1.40
2022-09-20T17:34:25.838Z,1.13
2022-09-20T17:37:13.948Z,1.33
2022-09-20T17:40:03.762Z,1.30
2022-09-20T17:42:51.762Z,1.63
2022-09-20T17:45:39.159Z,1.40
2022-09-20T17:48:26.366Z,1.37
2022-09-20T17:51:13.564Z,1.20
2022-09-20T17:54:01.208Z,1.47
2022-09-20T17:56:50.257Z,1.40
2022-09-20T17:59:37.704Z,1.40
2022-09-20T18:02:25.037Z,1.43
2022-09-20T18:05:12.694Z,1.57
2022-09-20T18:08:01.082Z,1.23
2022-09-20T18:10:55.723Z,1.40
2022-09-20T18:13:43.205Z,1.27
2022-09-20T18:16:31.028Z,1.40
2022-09-20T18:19:18.484Z,1.50
2022-09-20T18:22:06.427Z,1.30
2022-09-20T18:24:54.669Z,1.27
2022-09-20T18:27:42.709Z,1.40
2022-09-20T18:30:34.576Z,1.70
2022-09-20T18:33:22.685Z,1.93
2022-09-20T18:36:10.496Z,2.77
2022-09-20T18:38:58.652Z,3.40
2022-09-20T18:41:46.332Z,4.10
2022-09-20T18:44:33.914Z,4.43
2022-09-20T18:47:21.503Z,3.80
2022-09-20T18:50:10.835Z,2.80
2022-09-20T18:53:00.255Z,2.40
2022-09-20T18:55:47.579Z,2.10
2022-09-20T18:58:36.110Z,1.83
2022-09-20T19:01:32.750Z,2.03
2022-09-20T19:04:26.210Z,1.70
2022-09-20T19:07:20.100Z,2.10
2022-09-20T19:10:07.302Z,1.80
2022-09-20T19:13:13.253Z,2.03
2022-09-20T19:16:12.460Z,2.10
2022-09-20T19:19:09.186Z,1.93
2022-09-20T19:21:58.460Z,2.67
2022-09-20T19:24:49.090Z,1.80
2022-09-20T19:27:36.617Z,2.20
2022-09-20T19:30:24.381Z,1.67
2022-09-20T19:33:19.181Z,1.73
2022-09-20T19:36:08.318Z,2.23
2022-09-20T19:38:55.628Z,2.60
2022-09-20T19:41:49.299Z,3.07
2022-09-20T19:44:44.646Z,2.50
2022-09-20T19:47:36.182Z,3.63
2022-09-20T19:50:39.312Z,3.10
2022-09-20T19:53:28.491Z,3.33
2022-09-20T19:56:19.438Z,3.13
2022-09-20T19:59:17.209Z,2.90
2022-09-20T20:02:10.754Z,3.27
2022-09-20T20:04:58.752Z,3.10
2022-09-20T20:07:54.963Z,3.50
2022-09-20T20:10:51.649Z,3.23
2022-09-20T20:14:03.075Z,3.30
2022-09-20T20:16:50.612Z,3.60
2022-09-20T20:19:46.540Z,3.10
2022-09-20T20:22:45.745Z,2.87
2022-09-20T20:25:42.400Z,3.07
2022-09-20T20:28:32.727Z,3.13
2022-09-20T20:31:20.416Z,3.07
2022-09-20T20:34:08.869Z,3.50
2022-09-20T20:37:00.334Z,3.33
2022-09-20T20:39:48.152Z,2.77
2022-09-20T20:42:43.907Z,3.30
2022-09-20T20:45:31.669Z,2.80
2022-09-20T20:48:19.388Z,3.30
2022-09-20T20:51:11.593Z,3.17
2022-09-20T20:53:58.884Z,3.40
2022-09-20T20:56:46.629Z,3.10
2022-09-20T20:59:34.317Z,2.97
2022-09-20T21:02:21.725Z,3.57
2022-09-20T21:05:09.091Z,3.10
2022-09-20T21:07:57.757Z,2.60
2022-09-20T21:10:45.502Z,2.90
2022-09-20T21:13:33.086Z,2.40
2022-09-20T21:16:23.356Z,2.60
2022-09-20T21:19:15.236Z,2.37
2022-09-20T21:22:02.615Z,2.37
2022-09-20T21:24:51.196Z,2.13
2022-09-20T21:27:38.746Z,1.90
2022-09-20T21:30:26.917Z,2.13
2022-09-20T21:33:14.858Z,2.00
2022-09-20T21:36:25.093Z,1.97
2022-09-20T21:39:13.337Z,2.00
2022-09-20T21:42:00.791Z,2.10
2022-09-20T21:44:48.497Z,2.30
2022-09-20T21:47:36.037Z,2.40
2022-09-20T21:50:23.746Z,2.27
2022-09-20T21:53:12.742Z,2.30
2022-09-20T21:56:01.326Z,2.67
2022-09-20T21:58:49.121Z,2.83
2022-09-20T22:01:41.522Z,2.93
2022-09-20T22:04:29.162Z,2.47
2022-09-20T22:07:16.515Z,2.77
2022-09-20T22:10:04.016Z,2.73
2022-09-20T22:12:52.020Z,2.70
2022-09-20T22:15:39.499Z,2.80
2022-09-20T22:18:27.219Z,2.60
2022-09-20T22:21:16.492Z,2.87
2022-09-20T22:24:06.005Z,2.50
2022-09-20T22:26:53.650Z,2.97
2022-09-20T22:29:41.432Z,2.87
2022-09-20T22:32:28.779Z,4.53
2022-09-20T22:35:16.683Z,2.70
2022-09-20T22:38:04.123Z,2.50
2022-09-20T22:40:55.572Z,2.60
2022-09-20T22:43:42.839Z,2.63
2022-09-20T22:46:31.280Z,2.60
2022-09-20T22:49:19.151Z,2.67
2022-09-20T22:52:06.931Z,2.50
2022-09-20T22:54:54.307Z,2.60
2022-09-20T22:57:44.850Z,3.07
2022-09-20T23:00:32.779Z,2.90
2022-09-20T23:03:20.685Z,2.90
2022-09-20T23:06:22.253Z,2.47
2022-09-20T23:09:12.053Z,2.53
2022-09-20T23:11:59.753Z,2.97
2022-09-20T23:14:47.215Z,2.70
2022-09-20T23:17:35.009Z,2.97
2022-09-20T23:20:22.285Z,2.50
2022-09-20T23:23:09.962Z,2.50
2022-09-20T23:26:04.293Z,2.20
2022-09-20T23:28:56.101Z,2.70
2022-09-20T23:31:46.426Z,2.73
2022-09-20T23:34:34.239Z,2.57
2022-09-20T23:37:22.074Z,3.30
2022-09-20T23:40:10.210Z,2.50
2022-09-20T23:42:57.915Z,2.87
2022-09-20T23:45:45.365Z,2.50
2022-09-20T23:48:33.296Z,3.17
2022-09-20T23:51:23.054Z,2.43
2022-09-20T23:54:10.383Z,2.80
2022-09-20T23:56:58.030Z,2.37
2022-09-20T23:59:45.658Z,2.27
